Time;durP1;ratioP1;P1;durP2;ratioP2;P2;SDS_P1;SDS_P2;PMS_P1;PMS_P2;Temp;Humidity;BMP_temperature;BMP_pressure;BME280_temperature;BME280_humidity;BME280_pressure;Samples;Min_cycle;Max_cycle;Signal;HPM_P1;HPM_P2
2023/05/01 00:01:39;;;;;;;;;;;;;;;3.65;81.43;102151.06;5027771;28;19942;-76
2023/05/01 00:04:04;;;;;;;;;;;;;;;3.66;81.67;102147.41;5025661;28;19945;-77
2023/05/01 00:06:32;;;;;;;;;;;;;;;3.68;81.54;102140.09;5009273;28;19959;-78
2023/05/01 00:08:58;;;;;;;;;;;;;;;3.86;80.98;102143.09;5031754;28;19946;-78
2023/05/01 00:11:23;;;;;;;;;;;;;;;3.90;81.64;102141.72;5032983;28;20374;-77
2023/05/01 00:13:53;;;;;;;;;;;;;;;3.88;81.08;102138.44;5028695;28;20000;-78
2023/05/01 00:16:18;;;;;;;;;;;;;;;3.74;80.63;102134.03;5041212;28;19960;-77
2023/05/01 00:18:43;;;;;;;;;;;;;;;3.76;80.76;102129.38;5012489;28;19943;-78
2023/05/01 00:21:09;;;;;;;;;;;;;;;3.67;81.05;102123.38;5031330;28;19945;-76
2023/05/01 00:23:35;;;;;;;;;;;;;;;3.62;80.77;102120.47;5012746;28;19939;-78
2023/05/01 00:26:00;;;;;;;;;;;;;;;3.59;81.03;102127.97;5036115;28;20437;-77
2023/05/01 00:28:25;;;;;;;;;;;;;;;3.46;81.04;102126.84;5009193;28;20346;-78
2023/05/01 00:30:51;;;;;;;;;;;;;;;3.60;82.01;102121.69;5050901;28;19940;-77
2023/05/01 00:33:17;;;;;;;;;;;;;;;3.46;81.46;102124.22;5031769;28;19935;-78
2023/05/01 00:35:44;;;;;;;;;;;;;;;3.46;81.81;102108.31;5021521;28;19964;-78
2023/05/01 00:38:10;;;;;;;;;;;;;;;3.39;81.71;102104.78;5010229;28;19962;-77
2023/05/01 00:40:43;;;;;;;;;;;;;;;3.37;82.06;102106.78;5030126;28;20659;-77
2023/05/01 00:43:10;;;;;;;;;;;;;;;3.37;82.24;102111.25;5031831;28;19939;-77
2023/05/01 00:45:37;;;;;;;;;;;;;;;3.36;82.44;102105.16;5027220;28;20042;-77
2023/05/01 00:48:03;;;;;;;;;;;;;;;3.49;81.89;102099.16;5031254;28;20046;-78
2023/05/01 00:50:29;;;;;;;;;;;;;;;3.69;81.11;102094.03;5009996;28;19996;-75
2023/05/01 00:52:55;;;;;;;;;;;;;;;3.75;81.13;102098.59;5027705;28;19939;-75
2023/05/01 00:55:20;;;;;;;;;;;;;;;3.75;81.16;102090.63;5020476;28;20509;-77
2023/05/01 00:57:47;;;;;;;;;;;;;;;3.69;80.80;102099.34;5004532;28;19942;-76
2023/05/01 01:00:13;;;;;;;;;;;;;;;3.59;81.11;102082.94;5023420;28;20027;-76
2023/05/01 01:02:39;;;;;;;;;;;;;;;3.48;81.38;102089.59;5023286;28;19937;-78
2023/05/01 01:05:05;;;;;;;;;;;;;;;3.40;81.84;102087.88;5029724;28;19954;-76
2023/05/01 01:07:36;;;;;;;;;;;;;;;3.25;82.16;102087.09;5019256;28;19930;-77
2023/05/01 01:10:22;;;;;;;;;;;;;;;3.31;82.71;102091.63;5012550;28;19932;-76
2023/05/01 01:12:58;;;;;;;;;;;;;;;3.34;81.96;102085.16;5020962;28;20021;-76
2023/05/01 01:15:43;;;;;;;;;;;;;;;3.21;82.50;102093.78;5023359;28;19995;-77
2023/05/01 01:18:24;;;;;;;;;;;;;;;3.11;82.76;102082.66;5007342;28;20444;-77
2023/05/01 01:21:08;;;;;;;;;;;;;;;3.07;82.88;102078.78;5007219;28;19952;-77
2023/05/01 01:23:54;;;;;;;;;;;;;;;3.07;82.81;102078.78;5033635;28;19935;-77
2023/05/01 01:26:23;;;;;;;;;;;;;;;3.34;82.30;102074.56;5025629;28;19959;-77
2023/05/01 01:28:54;;;;;;;;;;;;;;;3.63;80.56;102073.59;5039083;28;19944;-78
2023/05/01 01:31:29;;;;;;;;;;;;;;;3.81;79.59;102066.84;5030229;28;19948;-78
2023/05/01 01:34:04;;;;;;;;;;;;;;;4.20;77.05;102070.78;5027192;28;20063;-76
2023/05/01 01:36:37;;;;;;;;;;;;;;;4.38;76.80;102059.66;5040892;28;20580;-77
2023/05/01 01:39:12;;;;;;;;;;;;;;;4.49;75.86;102069.72;5027834;28;19972;-77
2023/05/01 01:41:38;;;;;;;;;;;;;;;4.53;75.20;102064.81;5006953;28;19935;-77
2023/05/01 01:44:27;;;;;;;;;;;;;;;4.54;75.08;102064.66;5010488;28;19942;-76
2023/05/01 01:46:53;;;;;;;;;;;;;;;4.34;76.31;102061.06;5019876;28;20755;-77
2023/05/01 01:49:21;;;;;;;;;;;;;;;4.35;75.76;102063.53;5022881;28;19981;-78
2023/05/01 01:51:48;;;;;;;;;;;;;;;4.12;76.95;102052.34;5003887;28;20311;-77
2023/05/01 01:54:16;;;;;;;;;;;;;;;4.13;77.35;102051.34;5021110;28;19987;-78
2023/05/01 01:56:43;;;;;;;;;;;;;;;4.00;77.46;102056.59;5010112;28;19962;-76
2023/05/01 01:59:10;;;;;;;;;;;;;;;4.13;76.63;102054.00;5022824;28;19977;-77
2023/05/01 02:01:38;;;;;;;;;;;;;;;3.75;78.67;102053.53;5006214;28;19934;-77
2023/05/01 02:04:04;;;;;;;;;;;;;;;3.66;79.87;102052.03;5027824;28;20423;-77
2023/05/01 02:06:31;;;;;;;;;;;;;;;3.34;80.07;102054.22;5007364;28;20079;-78
2023/05/01 02:08:57;;;;;;;;;;;;;;;3.52;80.26;102051.94;5024246;28;19930;-78
2023/05/01 02:11:24;;;;;;;;;;;;;;;3.35;81.15;102050.53;5032875;28;19990;-77
2023/05/01 02:13:50;;;;;;;;;;;;;;;3.26;80.78;102041.09;5026911;28;19939;-77
2023/05/01 02:16:17;;;;;;;;;;;;;;;3.11;81.94;102051.72;5027357;28;20338;-77
2023/05/01 02:18:44;;;;;;;;;;;;;;;2.98;81.68;102044.50;5008827;28;19929;-78
2023/05/01 02:21:11;;;;;;;;;;;;;;;2.90;82.38;102041.94;5029379;28;19978;-77
2023/05/01 02:23:37;;;;;;;;;;;;;;;2.92;82.84;102047.88;5008674;28;20306;-77
2023/05/01 02:26:03;;;;;;;;;;;;;;;2.79;82.57;102034.50;5034398;28;19949;-77
2023/05/01 02:28:29;;;;;;;;;;;;;;;2.72;82.91;102034.44;5013496;28;19937;-78
2023/05/01 02:30:56;;;;;;;;;;;;;;;2.95;82.87;102034.25;5012870;28;19987;-77
2023/05/01 02:33:21;;;;;;;;;;;;;;;3.27;80.66;102027.66;5033233;28;20389;-77
2023/05/01 02:35:48;;;;;;;;;;;;;;;3.28;81.01;102023.19;5027505;28;20457;-77
2023/05/01 02:38:16;;;;;;;;;;;;;;;3.30;80.61;102015.88;5007792;28;20492;-79
2023/05/01 02:40:44;;;;;;;;;;;;;;;3.60;78.29;102005.13;5010750;28;19935;-78
2023/05/01 02:43:12;;;;;;;;;;;;;;;3.70;77.97;102008.25;5026369;28;19992;-78
2023/05/01 02:45:39;;;;;;;;;;;;;;;3.84;77.01;102009.97;5024317;28;19994;-77
2023/05/01 02:48:05;;;;;;;;;;;;;;;3.81;77.33;102002.41;5026128;28;19932;-77
2023/05/01 02:50:32;;;;;;;;;;;;;;;3.88;76.44;102002.47;5032545;28;20027;-77
2023/05/01 02:52:58;;;;;;;;;;;;;;;3.85;76.27;102001.00;4996528;28;19939;-77
2023/05/01 02:55:34;;;;;;;;;;;;;;;3.84;76.41;101991.41;5018244;28;19987;-77
2023/05/01 02:58:01;;;;;;;;;;;;;;;3.75;77.33;101998.72;5031499;28;19933;-77
2023/05/01 03:00:26;;;;;;;;;;;;;;;3.74;76.92;101999.72;5029115;28;19970;-77
2023/05/01 03:02:52;;;;;;;;;;;;;;;3.58;77.86;101989.41;5001623;28;19983;-78
2023/05/01 03:05:18;;;;;;;;;;;;;;;3.30;78.85;101992.03;5014264;28;20051;-77
2023/05/01 03:07:45;;;;;;;;;;;;;;;3.07;80.05;101988.78;5011901;28;20410;-76
2023/05/01 03:10:11;;;;;;;;;;;;;;;2.93;80.31;101991.31;5031476;28;19933;-77
2023/05/01 03:12:36;;;;;;;;;;;;;;;2.78;81.27;101990.53;5031223;28;20822;-77
2023/05/01 03:15:03;;;;;;;;;;;;;;;2.95;80.67;101997.22;5026540;28;19937;-77
2023/05/01 03:17:29;;;;;;;;;;;;;;;2.71;81.39;101989.66;5016174;28;20004;-77
2023/05/01 03:19:55;;;;;;;;;;;;;;;2.57;81.47;101988.66;5018031;28;19937;-77
2023/05/01 03:22:21;;;;;;;;;;;;;;;2.85;81.55;101980.84;5010465;28;19985;-77
2023/05/01 03:24:46;;;;;;;;;;;;;;;2.72;82.17;101986.00;5044691;28;20466;-77
2023/05/01 03:27:12;;;;;;;;;;;;;;;2.79;81.69;101980.78;5028573;28;20078;-77
2023/05/01 03:29:37;;;;;;;;;;;;;;;2.94;80.81;101974.41;5008358;28;19934;-77
2023/05/01 03:32:04;;;;;;;;;;;;;;;3.10;80.33;101967.22;5032859;28;20430;-79
2023/05/01 03:34:29;;;;;;;;;;;;;;;3.19;79.82;101966.09;5010230;28;19946;-77
2023/05/01 03:36:55;;;;;;;;;;;;;;;3.27;79.74;101960.66;5032045;28;19971;-77
2023/05/01 03:39:22;;;;;;;;;;;;;;;3.17;79.21;101960.97;4996330;28;19936;-77
2023/05/01 03:42:13;;;;;;;;;;;;;;;3.27;79.18;101950.06;5027267;28;19977;-77
2023/05/01 03:44:41;;;;;;;;;;;;;;;3.24;79.88;101945.13;5041571;28;20463;-76
2023/05/01 03:47:07;;;;;;;;;;;;;;;3.30;79.24;101949.66;5017642;28;20301;-78
2023/05/01 03:49:40;;;;;;;;;;;;;;;3.14;80.40;101944.66;5032563;28;19951;-77
2023/05/01 03:52:06;;;;;;;;;;;;;;;3.31;79.08;101942.53;5031126;28;19970;-78
2023/05/01 03:54:31;;;;;;;;;;;;;;;3.36;78.29;101940.16;5006837;28;19973;-76
2023/05/01 03:57:00;;;;;;;;;;;;;;;3.39;78.13;101935.31;5030557;28;20046;-77
2023/05/01 03:59:26;;;;;;;;;;;;;;;3.35;78.67;101943.81;5028241;28;19981;-77
2023/05/01 04:01:52;;;;;;;;;;;;;;;3.17;79.52;101936.31;5010418;28;19949;-77
2023/05/01 04:04:17;;;;;;;;;;;;;;;3.28;79.53;101944.56;5030175;28;20301;-77
2023/05/01 04:06:48;;;;;;;;;;;;;;;3.22;79.64;101937.41;5031923;28;19959;-78
2023/05/01 04:09:14;;;;;;;;;;;;;;;3.37;78.33;101932.00;5032106;28;19932;-78
2023/05/01 04:11:40;;;;;;;;;;;;;;;3.55;77.64;101940.28;5012080;28;19936;-77
2023/05/01 04:14:06;;;;;;;;;;;;;;;3.54;78.36;101930.72;5046166;28;19932;-77
2023/05/01 04:16:34;;;;;;;;;;;;;;;3.73;77.01;101925.75;5004442;28;20041;-77
2023/05/01 04:19:00;;;;;;;;;;;;;;;3.76;76.68;101925.34;5027409;28;19936;-77
2023/05/01 04:21:26;;;;;;;;;;;;;;;3.82;76.63;101924.56;5017488;28;19942;-77
2023/05/01 04:23:52;;;;;;;;;;;;;;;3.84;75.69;101918.03;5017745;28;19942;-77
2023/05/01 04:26:18;;;;;;;;;;;;;;;4.03;75.03;101913.03;5012833;28;20000;-78
2023/05/01 04:28:43;;;;;;;;;;;;;;;4.05;75.08;101914.47;5029464;28;19960;-77
2023/05/01 04:31:11;;;;;;;;;;;;;;;4.24;74.04;101917.41;5012787;28;20028;-78
2023/05/01 04:33:36;;;;;;;;;;;;;;;4.31;73.68;101918.22;5042128;28;20018;-78
2023/05/01 04:36:02;;;;;;;;;;;;;;;4.34;74.08;101908.06;5032025;28;19984;-76
2023/05/01 04:38:29;;;;;;;;;;;;;;;4.40;73.15;101909.06;5011276;28;19935;-77
2023/05/01 04:40:56;;;;;;;;;;;;;;;4.47;72.99;101907.28;5026188;28;19937;-78
2023/05/01 04:43:22;;;;;;;;;;;;;;;4.61;72.51;101905.47;5018565;28;20245;-77
2023/05/01 04:45:47;;;;;;;;;;;;;;;4.72;71.70;101899.56;5001460;28;19958;-77
2023/05/01 04:48:13;;;;;;;;;;;;;;;4.72;71.73;101902.19;5029339;28;20159;-77
2023/05/01 04:50:39;;;;;;;;;;;;;;;4.76;71.72;101894.66;5011460;28;19938;-79
2023/05/01 04:53:04;;;;;;;;;;;;;;;4.79;71.46;101889.75;5022769;28;19944;-78
2023/05/01 04:55:32;;;;;;;;;;;;;;;4.84;71.57;101891.81;5032523;28;19949;-76
2023/05/01 04:58:05;;;;;;;;;;;;;;;4.97;71.68;101888.34;5015480;28;20074;-78
2023/05/01 05:00:33;;;;;;;;;;;;;;;4.92;71.80;101886.31;5008416;28;19928;-77
2023/05/01 05:02:59;;;;;;;;;;;;;;;4.92;71.87;101889.78;5026613;28;20711;-77
2023/05/01 05:05:25;;;;;;;;;;;;;;;4.95;72.47;101904.50;5029854;28;19971;-77
2023/05/01 05:07:51;;;;;;;;;;;;;;;5.01;71.93;101895.69;5048445;28;20425;-78
2023/05/01 05:10:22;;;;;;;;;;;;;;;5.08;72.70;101899.19;5012684;28;19942;-77
2023/05/01 05:13:00;;;;;;;;;;;;;;;5.16;72.19;101895.50;5029463;28;19983;-77
2023/05/01 05:15:26;;;;;;;;;;;;;;;5.32;70.84;101896.91;5012366;28;19993;-79
2023/05/01 05:17:52;;;;;;;;;;;;;;;5.40;70.87;101897.50;5046644;28;19964;-77
2023/05/01 05:20:17;;;;;;;;;;;;;;;5.48;71.53;101899.13;5010337;28;19971;-78
2023/05/01 05:22:43;;;;;;;;;;;;;;;5.57;70.56;101900.53;5026506;28;19927;-77
2023/05/01 05:25:19;;;;;;;;;;;;;;;5.72;70.38;101906.44;5025264;28;20042;-78
2023/05/01 05:27:45;;;;;;;;;;;;;;;5.78;69.99;101901.31;5010497;28;20097;-77
2023/05/01 05:30:11;;;;;;;;;;;;;;;5.86;69.83;101906.41;5028080;28;19937;-78
2023/05/01 05:32:37;;;;;;;;;;;;;;;5.91;69.77;101888.00;5009876;28;19937;-78
2023/05/01 05:35:04;;;;;;;;;;;;;;;5.98;68.32;101894.13;5028063;28;20336;-77
2023/05/01 05:37:29;;;;;;;;;;;;;;;6.05;67.86;101889.59;5027176;28;19963;-78
2023/05/01 05:39:55;;;;;;;;;;;;;;;5.99;68.55;101885.09;5030425;28;19947;-78
2023/05/01 05:42:21;;;;;;;;;;;;;;;5.95;68.99;101889.19;4997747;28;20456;-78
2023/05/01 05:44:47;;;;;;;;;;;;;;;5.91;69.74;101880.03;5025384;28;20655;-76
2023/05/01 05:47:12;;;;;;;;;;;;;;;5.91;69.77;101885.34;5027328;28;20300;-78
2023/05/01 05:49:38;;;;;;;;;;;;;;;5.97;69.84;101880.00;5035310;28;19943;-78
2023/05/01 05:52:03;;;;;;;;;;;;;;;6.12;68.35;101868.28;5009096;28;19941;-78
2023/05/01 05:54:29;;;;;;;;;;;;;;;6.22;68.29;101882.72;5018296;28;20408;-79
2023/05/01 05:56:55;;;;;;;;;;;;;;;6.21;68.77;101880.28;5031145;28;20002;-78
2023/05/01 05:59:21;;;;;;;;;;;;;;;6.24;68.31;101874.56;5031602;28;19937;-77
2023/05/01 06:01:46;;;;;;;;;;;;;;;6.31;68.59;101872.69;5026473;28;19966;-77
2023/05/01 06:04:13;;;;;;;;;;;;;;;6.50;68.38;101873.56;5031829;28;20569;-78
2023/05/01 06:06:40;;;;;;;;;;;;;;;6.65;67.78;101868.78;5030688;28;20703;-77
2023/05/01 06:09:07;;;;;;;;;;;;;;;6.83;67.29;101870.66;5013529;28;19940;-78
2023/05/01 06:11:33;;;;;;;;;;;;;;;7.00;66.77;101857.66;5018564;28;19934;-79
2023/05/01 06:14:01;;;;;;;;;;;;;;;7.28;65.97;101862.50;5047644;28;19939;-77
2023/05/01 06:16:27;;;;;;;;;;;;;;;7.25;65.88;101858.44;5027686;28;20043;-78
2023/05/01 06:18:53;;;;;;;;;;;;;;;7.51;65.18;101856.50;5008027;28;20026;-79
2023/05/01 06:21:18;;;;;;;;;;;;;;;7.54;64.28;101851.56;5006056;28;19934;-78
2023/05/01 06:23:43;;;;;;;;;;;;;;;7.76;63.83;101853.78;5022856;28;19945;-77
2023/05/01 06:26:22;;;;;;;;;;;;;;;7.77;63.47;101850.06;5031780;28;20427;-78
2023/05/01 06:28:47;;;;;;;;;;;;;;;7.91;64.27;101855.00;5030200;28;19944;-77
2023/05/01 06:31:13;;;;;;;;;;;;;;;7.90;63.66;101853.38;5033682;28;19933;-77
2023/05/01 06:33:45;;;;;;;;;;;;;;;7.85;64.30;101853.25;5030043;28;19945;-78
2023/05/01 06:36:33;;;;;;;;;;;;;;;8.01;63.24;101845.69;5031961;28;19989;-79
2023/05/01 06:38:58;;;;;;;;;;;;;;;8.09;62.68;101843.50;5030652;28;20313;-77
2023/05/01 06:41:24;;;;;;;;;;;;;;;8.40;62.54;101842.50;5021849;28;19979;-79
2023/05/01 06:43:50;;;;;;;;;;;;;;;8.53;62.17;101837.97;5027221;28;20031;-77
2023/05/01 06:46:17;;;;;;;;;;;;;;;8.81;62.35;101824.81;5029929;28;20730;-77
2023/05/01 06:48:42;;;;;;;;;;;;;;;8.96;61.04;101833.16;5029672;28;19996;-78
2023/05/01 06:51:08;;;;;;;;;;;;;;;9.26;60.40;101835.69;5029293;28;19928;-77
2023/05/01 06:53:34;;;;;;;;;;;;;;;9.33;60.04;101830.22;5009940;28;19931;-78
2023/05/01 06:55:59;;;;;;;;;;;;;;;9.47;60.42;101828.94;5012150;28;19967;-77
2023/05/01 06:58:25;;;;;;;;;;;;;;;9.58;60.87;101825.44;5009758;28;19934;-77
2023/05/01 07:00:52;;;;;;;;;;;;;;;9.50;58.39;101817.78;5012274;28;19943;-77
2023/05/01 07:03:17;;;;;;;;;;;;;;;9.77;60.52;101815.38;5028489;28;19937;-77
2023/05/01 07:05:43;;;;;;;;;;;;;;;9.75;58.13;101825.47;5015979;28;20010;-78
2023/05/01 07:08:09;;;;;;;;;;;;;;;9.76;58.79;101810.28;4996036;28;19934;-77
2023/05/01 07:10:34;;;;;;;;;;;;;;;9.81;59.43;101807.66;5024480;28;19936;-77
2023/05/01 07:13:00;;;;;;;;;;;;;;;9.98;59.48;101816.56;5027041;28;19939;-77
2023/05/01 07:15:25;;;;;;;;;;;;;;;10.16;58.90;101817.41;5027381;28;19948;-77
2023/05/01 07:17:51;;;;;;;;;;;;;;;10.28;56.83;101802.13;5043691;28;20091;-77
2023/05/01 07:20:17;;;;;;;;;;;;;;;10.44;55.67;101796.00;5029227;28;19983;-77
2023/05/01 07:22:42;;;;;;;;;;;;;;;10.26;56.96;101806.94;5026272;28;20058;-77
2023/05/01 07:25:08;;;;;;;;;;;;;;;10.45;55.75;101792.25;5041454;28;20547;-77
2023/05/01 07:27:33;;;;;;;;;;;;;;;10.41;57.06;101801.03;5039254;28;19940;-78
2023/05/01 07:30:00;;;;;;;;;;;;;;;10.61;56.89;101788.75;5021042;28;19944;-78
2023/05/01 07:32:25;;;;;;;;;;;;;;;10.69;55.38;101792.91;5044368;28;19933;-77
2023/05/01 07:34:51;;;;;;;;;;;;;;;10.56;54.97;101787.88;5025245;28;20077;-76
2023/05/01 07:37:17;;;;;;;;;;;;;;;10.64;56.02;101787.47;5027044;28;20435;-77
2023/05/01 07:39:43;;;;;;;;;;;;;;;10.85;55.59;101783.25;5022007;28;20356;-77
2023/05/01 07:42:09;;;;;;;;;;;;;;;10.74;54.93;101776.09;5030874;28;20039;-78
2023/05/01 07:44:34;;;;;;;;;;;;;;;10.92;55.08;101773.16;5021469;28;20765;-79
2023/05/01 07:47:03;;;;;;;;;;;;;;;11.05;56.18;101767.44;5030977;28;19999;-77
2023/05/01 07:49:29;;;;;;;;;;;;;;;11.16;55.01;101766.50;5029188;28;19935;-77
2023/05/01 07:51:54;;;;;;;;;;;;;;;11.39;52.66;101757.44;5032702;28;19992;-79
2023/05/01 07:54:21;;;;;;;;;;;;;;;11.34;53.05;101762.72;5021757;28;19935;-78
2023/05/01 07:56:47;;;;;;;;;;;;;;;11.21;52.92;101758.53;5033946;28;19953;-77
2023/05/01 07:59:13;;;;;;;;;;;;;;;11.39;53.81;101753.94;5048783;28;19943;-78
2023/05/01 08:01:40;;;;;;;;;;;;;;;11.64;52.29;101751.53;5033952;28;19969;-79
2023/05/01 08:04:06;;;;;;;;;;;;;;;11.89;53.24;101750.22;5008315;28;19969;-78
2023/05/01 08:06:32;;;;;;;;;;;;;;;12.19;53.87;101752.34;5029252;28;19957;-78
2023/05/01 08:08:57;;;;;;;;;;;;;;;12.07;51.74;101746.34;5042821;28;19935;-79
2023/05/01 08:11:24;;;;;;;;;;;;;;;12.19;52.89;101742.44;5030829;28;19938;-77
2023/05/01 08:13:50;;;;;;;;;;;;;;;12.42;51.89;101743.16;5027686;28;19944;-77
2023/05/01 08:16:15;;;;;;;;;;;;;;;12.62;51.79;101739.81;5006068;28;19982;-78
2023/05/01 08:18:41;;;;;;;;;;;;;;;12.85;51.29;101740.19;5023623;28;19939;-77
2023/05/01 08:21:06;;;;;;;;;;;;;;;12.73;49.44;101734.22;5024754;28;19971;-78
2023/05/01 08:23:32;;;;;;;;;;;;;;;12.48;50.47;101737.56;5008933;28;20383;-77
2023/05/01 08:25:57;;;;;;;;;;;;;;;13.00;51.63;101731.41;5026651;28;19963;-77
2023/05/01 08:28:23;;;;;;;;;;;;;;;13.21;51.13;101732.38;5022241;28;20456;-78
2023/05/01 08:30:49;;;;;;;;;;;;;;;13.29;49.27;101726.47;5030828;28;19941;-77
2023/05/01 08:33:15;;;;;;;;;;;;;;;13.37;49.28;101730.53;5026263;28;19934;-76
2023/05/01 08:35:40;;;;;;;;;;;;;;;13.06;49.70;101730.34;5033547;28;19962;-77
2023/05/01 08:38:06;;;;;;;;;;;;;;;13.57;50.37;101727.09;5018177;28;20304;-78
2023/05/01 08:40:34;;;;;;;;;;;;;;;13.80;45.67;101731.16;5035548;28;20687;-77
2023/05/01 08:43:01;;;;;;;;;;;;;;;13.62;46.10;101727.91;5032841;28;19938;-78
2023/05/01 08:45:29;;;;;;;;;;;;;;;13.89;46.45;101716.94;5046260;28;19961;-77
2023/05/01 08:47:57;;;;;;;;;;;;;;;14.28;46.02;101719.06;5041775;28;19948;-77
2023/05/01 08:50:24;;;;;;;;;;;;;;;13.98;43.82;101717.19;5017649;28;19961;-78
2023/05/01 08:52:50;;;;;;;;;;;;;;;14.02;45.05;101703.97;5028919;28;19933;-78
2023/05/01 08:55:15;;;;;;;;;;;;;;;14.53;45.13;101698.59;5031702;28;19956;-79
2023/05/01 08:57:43;;;;;;;;;;;;;;;14.63;44.80;101695.88;5009906;28;19956;-78
2023/05/01 09:00:13;;;;;;;;;;;;;;;14.63;43.09;101698.56;5029794;28;19946;-80
2023/05/01 09:02:40;;;;;;;;;;;;;;;14.48;43.37;101700.22;5012839;28;19933;-79
2023/05/01 09:05:07;;;;;;;;;;;;;;;14.83;43.39;101692.31;5031689;28;19929;-79
2023/05/01 09:07:33;;;;;;;;;;;;;;;14.88;43.94;101690.41;5012506;28;19950;-77
2023/05/01 09:09:59;;;;;;;;;;;;;;;14.82;43.32;101693.41;5029027;28;19933;-78
2023/05/01 09:12:25;;;;;;;;;;;;;;;14.95;43.80;101690.91;5049906;28;19933;-78
2023/05/01 09:14:51;;;;;;;;;;;;;;;14.77;41.93;101691.53;5023289;28;19961;-78
2023/05/01 09:17:17;;;;;;;;;;;;;;;14.76;41.88;101687.19;5027708;28;19952;-78
2023/05/01 09:19:43;;;;;;;;;;;;;;;14.89;42.18;101681.22;5045045;28;20014;-78
2023/05/01 09:22:08;;;;;;;;;;;;;;;14.85;42.32;101682.06;5027216;28;19948;-78
2023/05/01 09:24:34;;;;;;;;;;;;;;;14.98;41.61;101670.69;5013119;28;20047;-78
2023/05/01 09:27:00;;;;;;;;;;;;;;;14.93;42.19;101670.72;5033709;28;19951;-78
2023/05/01 09:29:38;;;;;;;;;;;;;;;15.05;41.84;101671.19;5010412;28;20278;-79
2023/05/01 09:32:23;;;;;;;;;;;;;;;15.26;43.02;101669.22;5014076;28;20591;-78
2023/05/01 09:34:50;;;;;;;;;;;;;;;15.10;40.43;101662.25;5045870;28;19980;-78
2023/05/01 09:37:28;;;;;;;;;;;;;;;15.15;40.34;101657.66;5030444;28;19996;-78
2023/05/01 09:40:03;;;;;;;;;;;;;;;15.11;39.95;101662.00;5032674;28;20470;-78
2023/05/01 09:42:31;;;;;;;;;;;;;;;15.06;40.74;101658.53;5027930;28;20014;-77
2023/05/01 09:44:56;;;;;;;;;;;;;;;15.37;39.46;101651.84;5035523;28;20406;-78
2023/05/01 09:47:22;;;;;;;;;;;;;;;15.41;40.15;101647.53;5033807;28;19993;-78
2023/05/01 09:49:48;;;;;;;;;;;;;;;15.54;39.43;101648.78;5029938;28;19988;-77
2023/05/01 09:52:14;;;;;;;;;;;;;;;15.61;40.83;101654.69;5008520;28;20711;-77
2023/05/01 09:54:40;;;;;;;;;;;;;;;15.78;38.82;101643.50;5034777;28;20038;-79
2023/05/01 09:57:05;;;;;;;;;;;;;;;15.50;38.78;101643.13;5004398;28;20014;-78
2023/05/01 09:59:33;;;;;;;;;;;;;;;16.02;39.67;101633.56;5046444;28;19976;-77
2023/05/01 10:01:58;;;;;;;;;;;;;;;16.31;39.29;101630.03;5029542;28;19966;-77
2023/05/01 10:04:31;;;;;;;;;;;;;;;16.28;40.08;101636.03;5048264;28;19977;-77
2023/05/01 10:06:59;;;;;;;;;;;;;;;16.41;37.90;101627.25;4992140;28;20082;-78
2023/05/01 10:09:27;;;;;;;;;;;;;;;16.31;39.54;101635.44;5009183;28;19940;-78
2023/05/01 10:11:58;;;;;;;;;;;;;;;16.08;37.63;101623.53;5011195;28;19927;-78
2023/05/01 10:14:25;;;;;;;;;;;;;;;15.86;38.06;101629.41;5027231;28;19935;-79
2023/05/01 10:16:56;;;;;;;;;;;;;;;16.41;39.64;101623.75;5010163;28;20448;-77
2023/05/01 10:19:22;;;;;;;;;;;;;;;16.55;39.56;101617.34;5043619;28;20485;-79
2023/05/01 10:21:48;;;;;;;;;;;;;;;16.80;37.38;101604.63;5014249;28;19936;-79
2023/05/01 10:24:15;;;;;;;;;;;;;;;16.41;36.73;101608.31;5026011;28;19951;-80
2023/05/01 10:26:42;;;;;;;;;;;;;;;16.53;37.64;101610.63;5018418;28;19949;-78
2023/05/01 10:29:07;;;;;;;;;;;;;;;16.40;36.65;101612.13;5039284;28;19933;-77
2023/05/01 10:31:34;;;;;;;;;;;;;;;16.37;37.75;101610.78;5021087;28;19931;-78
2023/05/01 10:34:03;;;;;;;;;;;;;;;16.67;36.46;101608.03;5021224;28;19945;-79
2023/05/01 10:36:35;;;;;;;;;;;;;;;16.70;36.70;101604.78;5037287;28;20020;-78
2023/05/01 10:39:00;;;;;;;;;;;;;;;17.12;37.08;101606.63;5029542;28;19952;-78
2023/05/01 10:41:44;;;;;;;;;;;;;;;17.64;35.33;101592.03;5039602;28;19929;-78
2023/05/01 10:44:20;;;;;;;;;;;;;;;17.26;34.82;101585.06;5038906;28;19943;-78
2023/05/01 10:46:46;;;;;;;;;;;;;;;17.64;34.96;101586.59;5028437;28;20055;-77
2023/05/01 10:49:11;;;;;;;;;;;;;;;18.01;33.01;101579.50;5034866;28;19987;-78
2023/05/01 10:51:59;;;;;;;;;;;;;;;17.61;34.09;101581.81;5041353;28;19989;-79
2023/05/01 10:54:26;;;;;;;;;;;;;;;17.72;32.21;101571.59;5043472;28;20293;-81
2023/05/01 10:56:53;;;;;;;;;;;;;;;17.53;31.64;101566.19;5036161;28;19955;-79
2023/05/01 10:59:19;;;;;;;;;;;;;;;17.71;32.58;101570.81;5038808;28;20033;-79
2023/05/01 11:01:50;;;;;;;;;;;;;;;18.14;31.84;101562.44;5050051;28;19931;-79
2023/05/01 11:04:22;;;;;;;;;;;;;;;18.12;31.57;101553.81;5035617;28;19936;-80
2023/05/01 11:06:57;;;;;;;;;;;;;;;18.40;31.19;101554.59;5042350;28;19954;-80
2023/05/01 11:09:42;;;;;;;;;;;;;;;18.12;32.88;101542.97;5067510;28;19934;-81
2023/05/01 11:12:08;;;;;;;;;;;;;;;18.20;32.10;101538.75;5050875;28;20023;-80
2023/05/01 11:14:52;;;;;;;;;;;;;;;18.31;32.95;101545.59;5035018;28;19932;-80
2023/05/01 11:17:37;;;;;;;;;;;;;;;18.26;31.92;101543.78;5047712;28;19946;-78
2023/05/01 11:20:03;;;;;;;;;;;;;;;18.03;32.64;101541.28;5060870;28;19937;-78
2023/05/01 11:22:30;;;;;;;;;;;;;;;18.88;30.65;101543.31;5048361;28;19989;-78
2023/05/01 11:24:55;;;;;;;;;;;;;;;18.62;31.35;101534.88;5052329;28;19932;-77
2023/05/01 11:27:21;;;;;;;;;;;;;;;18.97;32.10;101537.97;5038645;28;19986;-77
2023/05/01 11:29:48;;;;;;;;;;;;;;;18.90;31.08;101516.69;5038693;28;19942;-78
2023/05/01 11:32:15;;;;;;;;;;;;;;;18.54;30.84;101522.84;5038794;28;20480;-79
2023/05/01 11:34:43;;;;;;;;;;;;;;;18.76;30.40;101529.47;5035841;28;20412;-78
2023/05/01 11:37:08;;;;;;;;;;;;;;;19.27;29.92;101517.41;5044501;28;20009;-80
2023/05/01 11:39:34;;;;;;;;;;;;;;;18.54;32.30;101517.41;5020802;28;19958;-78
2023/05/01 11:42:09;;;;;;;;;;;;;;;18.28;32.15;101510.91;5027454;28;19921;-78
2023/05/01 11:44:34;;;;;;;;;;;;;;;18.44;31.61;101511.44;5038825;28;20028;-78
2023/05/01 11:47:01;;;;;;;;;;;;;;;18.66;31.43;101508.78;5019287;28;20372;-79
2023/05/01 11:49:27;;;;;;;;;;;;;;;18.79;31.27;101505.25;5035078;28;19944;-79
2023/05/01 11:51:56;;;;;;;;;;;;;;;18.80;31.17;101498.69;5038242;28;19934;-78
2023/05/01 11:54:22;;;;;;;;;;;;;;;18.67;31.83;101504.97;5045072;28;19971;-79
2023/05/01 11:56:56;;;;;;;;;;;;;;;19.16;31.15;101491.63;5024495;28;19962;-79
2023/05/01 11:59:21;;;;;;;;;;;;;;;19.11;30.72;101487.13;5029468;28;19936;-79
2023/05/01 12:01:47;;;;;;;;;;;;;;;19.04;30.36;101484.84;5031099;28;19941;-79
2023/05/01 12:04:21;;;;;;;;;;;;;;;19.02;29.92;101484.34;5030586;28;19936;-78
2023/05/01 12:06:47;;;;;;;;;;;;;;;19.03;30.84;101485.13;5031945;28;20031;-79
2023/05/01 12:09:16;;;;;;;;;;;;;;;19.07;30.54;101478.78;5023817;28;20001;-78
2023/05/01 12:11:42;;;;;;;;;;;;;;;19.41;29.94;101477.41;5030696;28;19946;-78
2023/05/01 12:14:08;;;;;;;;;;;;;;;20.39;28.69;101474.44;5050817;28;20354;-78
2023/05/01 12:16:34;;;;;;;;;;;;;;;20.47;28.37;101472.09;5034620;28;19949;-78
2023/05/01 12:19:00;;;;;;;;;;;;;;;20.76;29.73;101464.06;5029336;28;20016;-76
2023/05/01 12:21:27;;;;;;;;;;;;;;;20.05;29.45;101468.91;5037424;28;20243;-79
2023/05/01 12:23:53;;;;;;;;;;;;;;;19.96;29.41;101466.16;5032016;28;20049;-79
2023/05/01 12:26:24;;;;;;;;;;;;;;;20.40;29.37;101461.63;5018764;28;19988;-78
2023/05/01 12:29:00;;;;;;;;;;;;;;;20.75;29.31;101462.47;5012963;28;19961;-79
2023/05/01 12:31:26;;;;;;;;;;;;;;;20.74;28.29;101455.44;5032541;28;20340;-78
2023/05/01 12:33:52;;;;;;;;;;;;;;;20.66;28.94;101458.94;5030687;28;19948;-78
2023/05/01 12:36:17;;;;;;;;;;;;;;;21.18;29.69;101464.34;5027776;28;20084;-78
2023/05/01 12:38:54;;;;;;;;;;;;;;;21.20;27.59;101457.47;5035082;28;20402;-79
2023/05/01 12:41:20;;;;;;;;;;;;;;;21.53;28.35;101451.44;5025198;28;19934;-78
2023/05/01 12:43:45;;;;;;;;;;;;;;;22.04;26.23;101450.41;5025702;28;19933;-78
2023/05/01 12:46:13;;;;;;;;;;;;;;;22.67;25.77;101450.47;5057226;28;20499;-78